Time;durP1;ratioP1;P1;durP2;ratioP2;P2;SDS_P1;SDS_P2;PMS_P1;PMS_P2;Temp;Humidity;BMP_temperature;BMP_pressure;BME280_temperature;BME280_humidity;BME280_pressure;Samples;Min_cycle;Max_cycle;Signal;HPM_P1;HPM_P2
2023/04/30 00:07:09;;;;;;;10.00;8.63;;;13.50;91.60;;;;;;21002492;28;20271;-70
2023/04/30 00:17:11;;;;;;;14.07;8.23;;;13.30;91.60;;;;;;21000889;28;20204;-66
2023/04/30 00:27:13;;;;;;;11.70;8.67;;;13.30;91.80;;;;;;20998868;28;20237;-68
2023/04/30 00:37:14;;;;;;;13.30;9.37;;;13.30;92.20;;;;;;20997281;28;20204;-72
2023/04/30 00:47:16;;;;;;;15.00;11.17;;;13.30;92.40;;;;;;20999642;28;20220;-70
2023/04/30 00:57:19;;;;;;;11.80;10.07;;;13.20;92.80;;;;;;20998250;28;20236;-68
2023/04/30 01:07:21;;;;;;;10.97;8.80;;;13.20;93.10;;;;;;20997284;28;20203;-68
2023/04/30 01:17:52;;;;;;;14.20;9.27;;;13.10;93.30;;;;;;20997308;28;20693;-68
2023/04/30 01:28:12;;;;;;;12.60;9.23;;;13.00;93.50;;;;;;20992795;28;20295;-68
2023/04/30 01:38:34;;;;;;;16.03;10.10;;;13.00;93.20;;;;;;20993823;28;20285;-70
2023/04/30 01:49:12;;;;;;;13.27;10.70;;;13.00;93.40;;;;;;20994554;28;20634;-71
2023/04/30 01:59:15;;;;;;;15.50;12.20;;;12.90;93.40;;;;;;20993770;28;20266;-72
2023/04/30 02:09:16;;;;;;;13.83;10.53;;;12.90;93.60;;;;;;20994045;28;20651;-72
2023/04/30 02:19:18;;;;;;;14.63;11.27;;;12.90;93.90;;;;;;20993953;28;20610;-72
2023/04/30 02:29:20;;;;;;;15.30;10.13;;;12.90;94.10;;;;;;20993060;28;20203;-72
2023/04/30 02:39:22;;;;;;;15.97;10.73;;;12.90;94.40;;;;;;20992633;28;20285;-71
2023/04/30 02:49:23;;;;;;;14.50;11.60;;;12.70;94.80;;;;;;21001701;28;20267;-70
2023/04/30 02:59:26;;;;;;;13.17;11.07;;;12.70;95.00;;;;;;21006950;28;20243;-70
2023/04/30 03:09:29;;;;;;;13.03;10.77;;;12.70;95.00;;;;;;21006548;28;20295;-72
2023/04/30 03:19:31;;;;;;;12.80;10.40;;;12.70;95.60;;;;;;21006142;28;20238;-72
2023/04/30 03:29:33;;;;;;;18.17;11.03;;;12.70;95.50;;;;;;21004943;28;20674;-70
2023/04/30 03:39:35;;;;;;;15.23;11.30;;;12.60;95.30;;;;;;21004502;28;20231;-70
2023/04/30 03:49:37;;;;;;;14.93;11.20;;;12.60;95.80;;;;;;21001820;28;20202;-69
2023/04/30 03:59:40;;;;;;;12.50;10.70;;;12.50;95.80;;;;;;21001688;28;20244;-70
2023/04/30 04:09:42;;;;;;;15.07;10.80;;;12.50;95.90;;;;;;21002978;28;20312;-72
2023/04/30 04:19:44;;;;;;;14.93;10.80;;;12.40;96.00;;;;;;21002163;28;20265;-71
2023/04/30 04:29:46;;;;;;;15.30;10.00;;;12.40;96.20;;;;;;21001421;28;20269;-71
2023/04/30 04:39:47;;;;;;;10.60;9.50;;;12.40;96.20;;;;;;20999666;28;20243;-68
2023/04/30 04:49:50;;;;;;;11.97;9.67;;;;;;;;;;20999138;28;20208;-69
2023/04/30 04:59:51;;;;;;;12.70;9.70;;;12.60;96.10;;;;;;20995141;28;20232;-67
2023/04/30 05:09:54;;;;;;;14.67;12.10;;;12.60;96.40;;;;;;20995071;28;20205;-68
2023/04/30 05:19:56;;;;;;;13.77;10.47;;;12.80;95.60;;;;;;20996004;28;20282;-68
2023/04/30 05:29:58;;;;;;;13.30;10.30;;;13.20;95.10;;;;;;20995255;28;20215;-67
2023/04/30 05:40:00;;;;;;;12.83;9.97;;;13.20;95.30;;;;;;20994434;28;20236;-69
2023/04/30 05:50:02;;;;;;;14.07;10.03;;;13.30;94.70;;;;;;20995394;28;20207;-73
2023/04/30 06:00:07;;;;;;;12.00;9.40;;;13.60;94.10;;;;;;20965123;28;20261;-72
2023/04/30 06:10:09;;;;;;;11.10;8.67;;;13.90;92.60;;;;;;20917807;28;20216;-68
2023/04/30 06:20:11;;;;;;;11.93;9.17;;;14.00;92.30;;;;;;20952498;28;20289;-68
2023/04/30 06:30:13;;;;;;;14.57;9.43;;;14.10;92.30;;;;;;20958854;28;20258;-70
2023/04/30 06:40:15;;;;;;;11.80;9.30;;;14.10;91.90;;;;;;21004126;28;20599;-67
2023/04/30 06:50:16;;;;;;;11.70;9.33;;;14.30;90.90;;;;;;20994630;28;20228;-67
2023/04/30 07:00:18;;;;;;;13.07;8.57;;;14.40;90.60;;;;;;20967624;28;20294;-68
2023/04/30 07:10:20;;;;;;;9.90;8.20;;;14.40;90.50;;;;;;20967794;28;20662;-69
2023/04/30 07:20:22;;;;;;;11.07;7.83;;;14.60;88.90;;;;;;20967091;28;20579;-69
2023/04/30 07:30:23;;;;;;;11.77;7.10;;;14.60;88.60;;;;;;20937073;28;20239;-70
2023/04/30 07:40:26;;;;;;;12.27;7.27;;;14.70;87.30;;;;;;20920519;28;20587;-72
2023/04/30 07:50:37;;;;;;;10.03;7.43;;;14.90;86.40;;;;;;20920998;28;20209;-71
2023/04/30 08:00:39;;;;;;;8.07;6.93;;;15.10;83.80;;;;;;20916875;28;20638;-71
2023/04/30 08:10:40;;;;;;;8.27;5.97;;;15.20;84.40;;;;;;20916925;28;20203;-68
2023/04/30 08:20:42;;;;;;;8.30;5.40;;;15.30;82.30;;;;;;20918654;28;20299;-67
2023/04/30 08:30:44;;;;;;;6.63;5.73;;;15.40;80.10;;;;;;20918320;28;20215;-67
2023/04/30 08:40:54;;;;;;;4.43;3.70;;;15.50;78.40;;;;;;20918113;28;20233;-71
2023/04/30 08:51:02;;;;;;;4.13;3.60;;;15.80;73.60;;;;;;20915823;28;20217;-68
2023/04/30 09:01:07;;;;;;;5.57;4.00;;;;;;;;;;20915156;28;20247;-71
2023/04/30 09:11:22;;;;;;;4.67;3.37;;;;;;;;;;20915073;28;20710;-71
2023/04/30 09:21:31;;;;;;;4.17;3.20;;;;;;;;;;20913309;28;20297;-69
2023/04/30 09:31:35;;;;;;;6.27;3.57;;;;;;;;;;20912286;28;20206;-71
2023/04/30 09:41:37;;;;;;;3.43;2.53;;;;;;;;;;20912802;28;20282;-71
2023/04/30 09:51:54;;;;;;;5.33;2.70;;;16.40;65.10;;;;;;20912403;28;20730;-71
2023/04/30 10:02:00;;;;;;;3.97;2.70;;;;;;;;;;20911354;28;20251;-70
2023/04/30 10:12:03;;;;;;;3.63;2.67;;;;;;;;;;20911532;28;20219;-71
2023/04/30 10:22:05;;;;;;;3.27;2.60;;;;;;;;;;20911530;28;20239;-72
2023/04/30 10:32:08;;;;;;;2.37;1.90;;;;;;;;;;20911397;28;20215;-71
2023/04/30 10:42:10;;;;;;;3.00;2.70;;;;;;;;;;20909708;28;20753;-72
2023/04/30 10:52:12;;;;;;;6.63;2.13;;;;;;;;;;20910489;28;20210;-71
2023/04/30 11:02:16;;;;;;;2.77;1.90;;;;;;;;;;20909808;28;20252;-70
2023/04/30 11:12:27;;;;;;;2.90;1.70;;;;;;;;;;20921034;28;20208;-71
2023/04/30 11:22:34;;;;;;;2.20;1.97;;;;;;;;;;20923391;28;20243;-72
2023/04/30 11:32:37;;;;;;;2.60;1.60;;;;;;;;;;20923285;28;20213;-70
2023/04/30 11:42:42;;;;;;;1.70;1.60;;;;;;;;;;20920287;28;20246;-69
2023/04/30 11:52:51;;;;;;;3.53;1.70;;;;;;;;;;20945879;28;20262;-73
2023/04/30 12:02:54;;;;;;;3.20;1.60;;;;;;;;;;21002449;28;20666;-67
2023/04/30 12:12:56;;;;;;;2.87;1.43;;;;;;;;;;21002229;28;20210;-64
2023/04/30 12:22:58;;;;;;;1.70;1.23;;;;;;;;;;21001317;28;20234;-65
2023/04/30 12:33:02;;;;;;;1.40;1.27;;;;;;;;;;20999961;28;20214;-68
2023/04/30 12:43:08;;;;;;;1.60;1.20;;;;;;;;;;20999346;28;20264;-69
2023/04/30 12:53:10;;;;;;;1.80;1.20;;;;;;;;;;20998612;28;20250;-67
2023/04/30 13:03:12;;;;;;;1.40;1.20;;;;;;;;;;20996186;28;20243;-68
2023/04/30 13:13:15;;;;;;;1.00;1.00;;;18.30;52.90;;;;;;20995292;28;20282;-66
2023/04/30 13:23:17;;;;;;;1.03;0.93;;;20.80;50.00;;;;;;20996318;28;20239;-66
2023/04/30 13:33:19;;;;;;;1.00;0.90;;;21.10;50.20;;;;;;20996021;28;20199;-72
2023/04/30 13:43:21;;;;;;;1.07;1.03;;;21.20;48.60;;;;;;20990429;28;20227;-73
2023/04/30 13:53:23;;;;;;;0.80;0.80;;;21.00;48.40;;;;;;20993808;28;20261;-74
2023/04/30 14:03:25;;;;;;;1.07;0.80;;;23.10;46.00;;;;;;20995437;28;20295;-73
2023/04/30 14:13:27;;;;;;;0.80;0.80;;;23.40;43.20;;;;;;20995086;28;20208;-73
2023/04/30 14:23:28;;;;;;;1.05;0.85;;;23.80;44.30;;;;;;20994538;28;20237;-71
2023/04/30 14:33:31;;;;;;;0.90;0.80;;;30.50;35.30;;;;;;20994578;28;20612;-72
2023/04/30 14:43:33;;;;;;;1.60;1.00;;;;;;;;;;20999751;28;20236;-71
2023/04/30 14:53:36;;;;;;;0.90;0.75;;;32.00;33.70;;;;;;21009087;28;20257;-72
2023/04/30 15:03:37;;;;;;;1.17;0.73;;;28.20;34.10;;;;;;21008441;28;20713;-72
2023/04/30 15:13:39;;;;;;;0.80;0.80;;;25.50;36.50;;;;;;21007507;28;20215;-72
2023/04/30 15:23:41;;;;;;;1.27;0.90;;;28.60;34.50;;;;;;21006782;28;20597;-72
2023/04/30 15:33:43;;;;;;;0.80;0.80;;;28.30;34.30;;;;;;21006233;28;20216;-73
2023/04/30 15:43:44;;;;;;;1.63;0.80;;;27.60;34.20;;;;;;21005253;28;20237;-72
2023/04/30 15:53:46;;;;;;;3.30;0.77;;;27.20;33.90;;;;;;21004518;28;20220;-73
2023/04/30 16:03:48;;;;;;;1.00;0.90;;;25.70;35.60;;;;;;21004250;28;20244;-71
2023/04/30 16:13:50;;;;;;;1.05;0.90;;;25.00;36.40;;;;;;21005907;28;20213;-71
2023/04/30 16:23:52;;;;;;;1.23;1.00;;;25.10;37.10;;;;;;21002603;28;20235;-74
2023/04/30 16:33:55;;;;;;;0.82;0.82;;;;;;;;;;21001397;28;20569;-73
2023/04/30 16:43:56;;;;;;;1.50;0.88;;;26.10;36.20;;;;;;20974950;28;20300;-73
2023/04/30 16:53:58;;;;;;;0.98;0.90;;;26.40;35.60;;;;;;20934995;28;20216;-73
2023/04/30 17:04:00;;;;;;;1.80;0.90;;;26.10;36.00;;;;;;20915560;28;20719;-74
2023/04/30 17:14:01;;;;;;;2.47;1.08;;;26.40;35.80;;;;;;20915536;28;20664;-77
2023/04/30 17:24:04;;;;;;;2.50;1.00;;;26.20;35.70;;;;;;20931377;28;20694;-76
2023/04/30 17:34:05;;;;;;;1.97;1.17;;;23.80;37.60;;;;;;20947806;28;20204;-73
2023/04/30 17:44:07;;;;;;;1.13;1.03;;;22.40;38.50;;;;;;20954965;28;20242;-75
2023/04/30 17:54:09;;;;;;;1.63;0.90;;;21.60;39.50;;;;;;20916164;28;20594;-71
2023/04/30 18:04:16;;;;;;;1.27;1.10;;;20.90;40.70;;;;;;20911248;28;20245;-74
2023/04/30 18:14:18;;;;;;;3.00;1.20;;;20.30;41.40;;;;;;20930421;28;20208;-73
2023/04/30 18:24:20;;;;;;;1.80;1.20;;;;;;;;;;20937072;28;20240;-73
2023/04/30 18:34:23;;;;;;;2.43;1.23;;;;;;;;;;20929463;28;20211;-76
2023/04/30 18:44:31;;;;;;;1.43;1.20;;;;;;;;;;20925507;28;20241;-75
2023/04/30 18:54:34;;;;;;;2.70;1.30;;;;;;;;;;20921570;28;20232;-74
2023/04/30 19:04:36;;;;;;;4.20;1.73;;;;;;;;;;20922778;28;20248;-75
2023/04/30 19:14:38;;;;;;;5.77;2.80;;;;;;;;;;20921814;28;20219;-70
2023/04/30 19:24:41;;;;;;;2.37;2.00;;;;;;;;;;20921640;28;20239;-70
2023/04/30 19:34:43;;;;;;;2.57;1.80;;;;;;;;;;20921631;28;20209;-67
2023/04/30 19:44:45;;;;;;;1.93;1.60;;;;;;;;;;20920807;28;20283;-68
2023/04/30 19:54:48;;;;;;;2.70;1.73;;;;;;;;;;20918797;28;20210;-67
2023/04/30 20:04:51;;;;;;;7.07;4.83;;;;;;;;;;20919137;28;20293;-67
2023/04/30 20:14:53;;;;;;;4.60;2.10;;;;;;;;;;20918141;28;20218;-67
2023/04/30 20:24:55;;;;;;;5.47;2.00;;;;;;;;;;20917317;28;20648;-68
2023/04/30 20:34:58;;;;;;;3.03;2.10;;;;;;;;;;20916595;28;20220;-69
2023/04/30 20:45:00;;;;;;;4.57;2.20;;;;;;;;;;20914327;28;20237;-69
2023/04/30 20:55:06;;;;;;;3.13;2.50;;;;;;;;;;20897574;28;20229;-69
2023/04/30 21:05:08;;;;;;;3.93;2.40;;;15.70;52.10;;;;;;20913968;28;20686;-68
2023/04/30 21:15:11;;;;;;;4.47;2.10;;;;;;;;;;20913441;28;20277;-68
2023/04/30 21:25:13;;;;;;;2.87;2.20;;;15.60;52.60;;;;;;20911848;28;20603;-69
2023/04/30 21:35:15;;;;;;;5.33;4.10;;;15.30;52.90;;;;;;20914828;28;20212;-70
2023/04/30 21:45:17;;;;;;;5.37;2.40;;;15.30;53.50;;;;;;20913207;28;20236;-74
2023/04/30 21:55:19;;;;;;;3.73;2.50;;;15.20;53.70;;;;;;20912782;28;20202;-70
2023/04/30 22:05:21;;;;;;;3.57;2.53;;;15.00;53.70;;;;;;20912466;28;20246;-76
2023/04/30 22:15:24;;;;;;;3.40;2.60;;;15.00;53.90;;;;;;20912600;28;20219;-76
2023/04/30 22:25:34;;;;;;;3.33;2.50;;;14.70;54.50;;;;;;20911534;28;20239;-74
2023/04/30 22:35:37;;;;;;;3.50;2.60;;;14.70;55.10;;;;;;20910961;28;20680;-75
2023/04/30 22:45:39;;;;;;;4.07;2.77;;;14.60;55.50;;;;;;20911212;28;20244;-74
2023/04/30 22:55:41;;;;;;;4.57;2.80;;;14.60;55.40;;;;;;20910614;28;20617;-76
2023/04/30 23:05:43;;;;;;;4.57;3.00;;;14.40;55.90;;;;;;20917717;28;20313;-74
2023/04/30 23:15:45;;;;;;;7.93;3.00;;;14.30;56.20;;;;;;20925394;28;20204;-69
2023/04/30 23:25:46;;;;;;;8.77;3.20;;;14.20;56.60;;;;;;20924243;28;20232;-68
2023/04/30 23:35:48;;;;;;;5.33;3.40;;;14.00;56.50;;;;;;20923773;28;20208;-71
2023/04/30 23:45:50;;;;;;;8.20;3.97;;;13.90;57.20;;;;;;20926633;28;20230;-75
2023/04/30 23:55:53;;;;;;;10.03;5.40;;;13.60;58.50;;;;;;20924201;28;20231;-75
